sensor_id;sensor_type;location;lat;lon;timestamp;P1;durP1;ratioP1;P2;durP2;ratioP2
56893;SDS011;43392;50.078;13.704;2022-10-28T00:01:59;160.85;;;27.35;;
56893;SDS011;43392;50.078;13.704;2022-10-28T00:04:27;59.15;;;24.27;;
56893;SDS011;43392;50.078;13.704;2022-10-28T00:06:53;80.93;;;30.00;;
56893;SDS011;43392;50.078;13.704;2022-10-28T00:09:20;56.92;;;27.13;;
56893;SDS011;43392;50.078;13.704;2022-10-28T00:11:47;58.67;;;27.05;;
56893;SDS011;43392;50.078;13.704;2022-10-28T00:14:13;49.03;;;26.42;;
56893;SDS011;43392;50.078;13.704;2022-10-28T00:16:40;48.83;;;26.15;;
56893;SDS011;43392;50.078;13.704;2022-10-28T00:19:07;48.95;;;25.77;;
56893;SDS011;43392;50.078;13.704;2022-10-28T00:21:38;57.17;;;24.70;;
56893;SDS011;43392;50.078;13.704;2022-10-28T00:24:06;41.90;;;25.10;;
56893;SDS011;43392;50.078;13.704;2022-10-28T00:26:34;61.60;;;25.90;;
56893;SDS011;43392;50.078;13.704;2022-10-28T00:29:03;38.50;;;22.42;;
56893;SDS011;43392;50.078;13.704;2022-10-28T00:31:31;36.55;;;22.80;;
56893;SDS011;43392;50.078;13.704;2022-10-28T00:34:00;36.67;;;21.70;;
56893;SDS011;43392;50.078;13.704;2022-10-28T00:36:29;37.85;;;22.88;;
56893;SDS011;43392;50.078;13.704;2022-10-28T00:38:59;31.35;;;19.77;;
56893;SDS011;43392;50.078;13.704;2022-10-28T00:41:27;35.83;;;22.50;;
56893;SDS011;43392;50.078;13.704;2022-10-28T00:43:56;54.22;;;28.25;;
56893;SDS011;43392;50.078;13.704;2022-10-28T00:46:25;64.47;;;24.95;;
56893;SDS011;43392;50.078;13.704;2022-10-28T00:48:56;56.80;;;21.63;;
56893;SDS011;43392;50.078;13.704;2022-10-28T00:51:25;42.13;;;21.58;;
56893;SDS011;43392;50.078;13.704;2022-10-28T00:53:53;30.67;;;17.83;;
56893;SDS011;43392;50.078;13.704;2022-10-28T00:56:23;42.60;;;18.33;;
56893;SDS011;43392;50.078;13.704;2022-10-28T00:58:51;35.38;;;19.48;;
56893;SDS011;43392;50.078;13.704;2022-10-28T01:01:21;32.00;;;18.27;;
56893;SDS011;43392;50.078;13.704;2022-10-28T01:03:47;34.92;;;19.02;;
56893;SDS011;43392;50.078;13.704;2022-10-28T01:06:14;29.10;;;18.25;;
56893;SDS011;43392;50.078;13.704;2022-10-28T01:08:42;26.55;;;17.38;;
56893;SDS011;43392;50.078;13.704;2022-10-28T01:14:20;24.95;;;16.27;;
56893;SDS011;43392;50.078;13.704;2022-10-28T01:16:59;22.58;;;15.32;;
56893;SDS011;43392;50.078;13.704;2022-10-28T01:19:44;23.52;;;16.15;;
56893;SDS011;43392;50.078;13.704;2022-10-28T01:22:29;20.17;;;14.07;;
56893;SDS011;43392;50.078;13.704;2022-10-28T01:25:14;21.70;;;14.85;;
56893;SDS011;43392;50.078;13.704;2022-10-28T01:28:08;19.45;;;13.02;;
56893;SDS011;43392;50.078;13.704;2022-10-28T01:30:56;17.90;;;12.23;;
56893;SDS011;43392;50.078;13.704;2022-10-28T01:33:35;17.50;;;12.40;;
56893;SDS011;43392;50.078;13.704;2022-10-28T01:36:07;21.98;;;14.57;;
56893;SDS011;43392;50.078;13.704;2022-10-28T01:38:40;21.10;;;13.82;;
56893;SDS011;43392;50.078;13.704;2022-10-28T01:41:16;31.83;;;16.05;;
56893;SDS011;43392;50.078;13.704;2022-10-28T01:43:47;31.55;;;16.25;;
56893;SDS011;43392;50.078;13.704;2022-10-28T01:46:23;30.33;;;18.15;;
56893;SDS011;43392;50.078;13.704;2022-10-28T01:48:54;27.55;;;16.80;;
56893;SDS011;43392;50.078;13.704;2022-10-28T01:51:25;29.35;;;17.80;;
56893;SDS011;43392;50.078;13.704;2022-10-28T01:53:55;27.92;;;18.00;;
56893;SDS011;43392;50.078;13.704;2022-10-28T01:56:26;27.27;;;17.37;;
56893;SDS011;43392;50.078;13.704;2022-10-28T01:58:56;28.05;;;16.45;;
56893;SDS011;43392;50.078;13.704;2022-10-28T02:01:27;24.10;;;15.30;;
56893;SDS011;43392;50.078;13.704;2022-10-28T02:03:56;23.33;;;14.57;;
56893;SDS011;43392;50.078;13.704;2022-10-28T02:06:24;22.55;;;13.63;;
56893;SDS011;43392;50.078;13.704;2022-10-28T02:08:58;22.85;;;14.45;;
56893;SDS011;43392;50.078;13.704;2022-10-28T02:11:42;26.02;;;14.43;;
56893;SDS011;43392;50.078;13.704;2022-10-28T02:14:21;24.02;;;15.48;;
56893;SDS011;43392;50.078;13.704;2022-10-28T02:17:01;25.13;;;15.63;;
56893;SDS011;43392;50.078;13.704;2022-10-28T02:19:37;21.95;;;14.68;;
56893;SDS011;43392;50.078;13.704;2022-10-28T02:22:14;24.52;;;15.05;;
56893;SDS011;43392;50.078;13.704;2022-10-28T02:24:47;24.98;;;15.32;;
56893;SDS011;43392;50.078;13.704;2022-10-28T02:27:27;25.08;;;15.95;;
56893;SDS011;43392;50.078;13.704;2022-10-28T02:29:59;23.63;;;15.07;;
56893;SDS011;43392;50.078;13.704;2022-10-28T02:32:32;22.38;;;14.65;;
56893;SDS011;43392;50.078;13.704;2022-10-28T02:35:03;23.35;;;14.65;;
56893;SDS011;43392;50.078;13.704;2022-10-28T02:37:32;24.80;;;15.77;;
56893;SDS011;43392;50.078;13.704;2022-10-28T02:40:02;25.08;;;16.08;;
56893;SDS011;43392;50.078;13.704;2022-10-28T02:42:34;26.45;;;16.38;;
56893;SDS011;43392;50.078;13.704;2022-10-28T02:45:05;23.73;;;15.00;;
56893;SDS011;43392;50.078;13.704;2022-10-28T02:47:37;23.27;;;14.65;;
56893;SDS011;43392;50.078;13.704;2022-10-28T02:50:07;20.88;;;13.82;;
56893;SDS011;43392;50.078;13.704;2022-10-28T02:52:39;19.55;;;12.75;;
56893;SDS011;43392;50.078;13.704;2022-10-28T02:55:09;21.15;;;14.20;;
56893;SDS011;43392;50.078;13.704;2022-10-28T02:57:37;19.88;;;13.40;;
56893;SDS011;43392;50.078;13.704;2022-10-28T03:00:08;20.75;;;14.18;;
56893;SDS011;43392;50.078;13.704;2022-10-28T03:02:38;19.33;;;13.50;;
56893;SDS011;43392;50.078;13.704;2022-10-28T03:05:05;21.95;;;14.75;;
56893;SDS011;43392;50.078;13.704;2022-10-28T03:07:32;24.08;;;16.30;;
56893;SDS011;43392;50.078;13.704;2022-10-28T03:09:59;25.92;;;15.65;;
56893;SDS011;43392;50.078;13.704;2022-10-28T03:12:25;25.77;;;17.30;;
56893;SDS011;43392;50.078;13.704;2022-10-28T03:14:52;24.33;;;16.00;;
56893;SDS011;43392;50.078;13.704;2022-10-28T03:17:18;26.23;;;16.27;;
56893;SDS011;43392;50.078;13.704;2022-10-28T03:19:46;24.40;;;15.55;;
56893;SDS011;43392;50.078;13.704;2022-10-28T03:22:13;26.13;;;16.48;;
56893;SDS011;43392;50.078;13.704;2022-10-28T03:24:39;24.27;;;15.73;;
56893;SDS011;43392;50.078;13.704;2022-10-28T03:27:06;21.75;;;14.73;;
56893;SDS011;43392;50.078;13.704;2022-10-28T03:29:33;21.38;;;14.90;;
56893;SDS011;43392;50.078;13.704;2022-10-28T03:31:59;19.13;;;12.98;;
56893;SDS011;43392;50.078;13.704;2022-10-28T03:34:26;19.95;;;13.32;;
56893;SDS011;43392;50.078;13.704;2022-10-28T03:36:54;19.73;;;11.75;;
56893;SDS011;43392;50.078;13.704;2022-10-28T03:39:20;19.20;;;12.25;;
56893;SDS011;43392;50.078;13.704;2022-10-28T03:41:47;20.88;;;13.20;;
56893;SDS011;43392;50.078;13.704;2022-10-28T03:44:13;19.80;;;13.50;;
56893;SDS011;43392;50.078;13.704;2022-10-28T03:46:40;21.95;;;14.02;;
56893;SDS011;43392;50.078;13.704;2022-10-28T03:49:07;20.40;;;13.50;;
56893;SDS011;43392;50.078;13.704;2022-10-28T03:51:33;23.70;;;14.05;;
56893;SDS011;43392;50.078;13.704;2022-10-28T03:54:01;23.75;;;14.00;;
56893;SDS011;43392;50.078;13.704;2022-10-28T03:56:28;21.35;;;13.70;;
56893;SDS011;43392;50.078;13.704;2022-10-28T03:58:54;21.23;;;13.80;;
56893;SDS011;43392;50.078;13.704;2022-10-28T04:01:21;22.35;;;14.23;;
56893;SDS011;43392;50.078;13.704;2022-10-28T04:03:47;20.48;;;13.77;;
56893;SDS011;43392;50.078;13.704;2022-10-28T04:06:14;24.10;;;14.63;;
56893;SDS011;43392;50.078;13.704;2022-10-28T04:08:41;22.58;;;14.45;;
56893;SDS011;43392;50.078;13.704;2022-10-28T04:11:09;23.55;;;14.48;;
56893;SDS011;43392;50.078;13.704;2022-10-28T04:13:35;23.63;;;14.38;;
56893;SDS011;43392;50.078;13.704;2022-10-28T04:16:02;23.38;;;13.70;;
56893;SDS011;43392;50.078;13.704;2022-10-28T04:18:29;25.13;;;14.48;;
56893;SDS011;43392;50.078;13.704;2022-10-28T04:20:56;22.55;;;14.43;;
56893;SDS011;43392;50.078;13.704;2022-10-28T04:23:22;24.58;;;14.90;;
56893;SDS011;43392;50.078;13.704;2022-10-28T04:25:50;20.77;;;13.63;;
56893;SDS011;43392;50.078;13.704;2022-10-28T04:28:19;24.92;;;14.45;;
56893;SDS011;43392;50.078;13.704;2022-10-28T04:30:46;21.98;;;13.27;;
56893;SDS011;43392;50.078;13.704;2022-10-28T04:33:13;21.42;;;14.15;;
56893;SDS011;43392;50.078;13.704;2022-10-28T04:35:39;22.23;;;14.30;;
56893;SDS011;43392;50.078;13.704;2022-10-28T04:38:07;26.95;;;14.90;;
56893;SDS011;43392;50.078;13.704;2022-10-28T04:40:33;23.67;;;14.45;;
56893;SDS011;43392;50.078;13.704;2022-10-28T04:43:00;26.20;;;15.52;;
56893;SDS011;43392;50.078;13.704;2022-10-28T04:45:28;25.08;;;14.35;;
56893;SDS011;43392;50.078;13.704;2022-10-28T04:47:56;23.55;;;14.68;;
56893;SDS011;43392;50.078;13.704;2022-10-28T04:50:23;23.58;;;14.30;;
56893;SDS011;43392;50.078;13.704;2022-10-28T04:52:49;20.15;;;12.55;;
56893;SDS011;43392;50.078;13.704;2022-10-28T04:55:16;19.60;;;13.40;;
56893;SDS011;43392;50.078;13.704;2022-10-28T04:57:42;19.90;;;12.82;;
56893;SDS011;43392;50.078;13.704;2022-10-28T05:00:10;21.98;;;14.30;;
56893;SDS011;43392;50.078;13.704;2022-10-28T05:02:38;24.80;;;17.13;;
56893;SDS011;43392;50.078;13.704;2022-10-28T05:05:05;25.50;;;17.85;;
56893;SDS011;43392;50.078;13.704;2022-10-28T05:07:32;26.75;;;17.10;;
56893;SDS011;43392;50.078;13.704;2022-10-28T05:09:59;27.15;;;17.42;;
56893;SDS011;43392;50.078;13.704;2022-10-28T05:12:26;28.05;;;16.38;;
56893;SDS011;43392;50.078;13.704;2022-10-28T05:14:52;28.13;;;17.15;;
56893;SDS011;43392;50.078;13.704;2022-10-28T05:17:19;30.20;;;16.27;;
56893;SDS011;43392;50.078;13.704;2022-10-28T05:19:47;23.90;;;15.02;;
56893;SDS011;43392;50.078;13.704;2022-10-28T05:22:13;21.70;;;14.65;;
56893;SDS011;43392;50.078;13.704;2022-10-28T05:24:40;23.88;;;15.63;;
56893;SDS011;43392;50.078;13.704;2022-10-28T05:27:06;23.52;;;14.88;;
56893;SDS011;43392;50.078;13.704;2022-10-28T05:29:33;24.35;;;15.90;;
56893;SDS011;43392;50.078;13.704;2022-10-28T05:32:00;21.08;;;14.25;;
56893;SDS011;43392;50.078;13.704;2022-10-28T05:34:26;22.33;;;14.52;;
56893;SDS011;43392;50.078;13.704;2022-10-28T05:36:54;22.65;;;14.05;;
56893;SDS011;43392;50.078;13.704;2022-10-28T05:39:21;22.17;;;15.27;;
56893;SDS011;43392;50.078;13.704;2022-10-28T05:41:47;23.80;;;14.98;;
56893;SDS011;43392;50.078;13.704;2022-10-28T05:44:14;19.60;;;13.10;;
56893;SDS011;43392;50.078;13.704;2022-10-28T05:46:40;21.02;;;12.57;;
56893;SDS011;43392;50.078;13.704;2022-10-28T05:49:07;23.02;;;14.45;;
56893;SDS011;43392;50.078;13.704;2022-10-28T05:51:34;23.73;;;14.60;;
56893;SDS011;43392;50.078;13.704;2022-10-28T05:54:02;25.58;;;17.23;;
56893;SDS011;43392;50.078;13.704;2022-10-28T05:56:28;26.33;;;12.02;;
56893;SDS011;43392;50.078;13.704;2022-10-28T05:58:55;24.05;;;13.38;;
56893;SDS011;43392;50.078;13.704;2022-10-28T06:01:22;65.25;;;14.13;;
56893;SDS011;43392;50.078;13.704;2022-10-28T06:03:48;21.40;;;13.20;;
56893;SDS011;43392;50.078;13.704;2022-10-28T06:06:15;21.65;;;13.20;;
56893;SDS011;43392;50.078;13.704;2022-10-28T06:08:41;19.70;;;13.25;;
56893;SDS011;43392;50.078;13.704;2022-10-28T06:11:09;26.10;;;15.85;;
56893;SDS011;43392;50.078;13.704;2022-10-28T06:13:36;22.88;;;14.40;;
56893;SDS011;43392;50.078;13.704;2022-10-28T06:16:02;25.30;;;15.07;;
56893;SDS011;43392;50.078;13.704;2022-10-28T06:18:29;20.60;;;13.77;;
56893;SDS011;43392;50.078;13.704;2022-10-28T06:20:56;25.23;;;16.10;;
56893;SDS011;43392;50.078;13.704;2022-10-28T06:23:24;24.67;;;14.90;;
56893;SDS011;43392;50.078;13.704;2022-10-28T06:25:55;22.70;;;14.45;;
56893;SDS011;43392;50.078;13.704;2022-10-28T06:28:23;23.33;;;14.50;;
56893;SDS011;43392;50.078;13.704;2022-10-28T06:30:50;23.40;;;14.00;;
56893;SDS011;43392;50.078;13.704;2022-10-28T06:33:16;21.83;;;14.38;;
56893;SDS011;43392;50.078;13.704;2022-10-28T06:35:43;25.42;;;15.05;;
56893;SDS011;43392;50.078;13.704;2022-10-28T06:38:09;27.02;;;17.15;;
56893;SDS011;43392;50.078;13.704;2022-10-28T06:40:36;22.73;;;15.10;;
56893;SDS011;43392;50.078;13.704;2022-10-28T06:43:04;24.33;;;15.45;;
56893;SDS011;43392;50.078;13.704;2022-10-28T06:45:33;24.13;;;15.30;;
56893;SDS011;43392;50.078;13.704;2022-10-28T06:48:00;23.13;;;16.08;;
56893;SDS011;43392;50.078;13.704;2022-10-28T06:50:29;24.05;;;16.35;;
56893;SDS011;43392;50.078;13.704;2022-10-28T06:52:56;24.67;;;15.48;;
56893;SDS011;43392;50.078;13.704;2022-10-28T06:55:23;23.70;;;16.00;;
56893;SDS011;43392;50.078;13.704;2022-10-28T06:57:50;27.20;;;16.58;;
56893;SDS011;43392;50.078;13.704;2022-10-28T07:00:17;27.88;;;17.42;;
56893;SDS011;43392;50.078;13.704;2022-10-28T07:02:45;27.08;;;18.30;;
56893;SDS011;43392;50.078;13.704;2022-10-28T07:05:15;24.50;;;15.25;;
56893;SDS011;43392;50.078;13.704;2022-10-28T07:07:42;30.27;;;18.33;;
56893;SDS011;43392;50.078;13.704;2022-10-28T07:10:08;25.10;;;17.35;;
56893;SDS011;43392;50.078;13.704;2022-10-28T07:12:35;26.05;;;17.60;;
56893;SDS011;43392;50.078;13.704;2022-10-28T07:15:02;24.83;;;17.27;;
56893;SDS011;43392;50.078;13.704;2022-10-28T07:17:29;24.67;;;16.60;;
56893;SDS011;43392;50.078;13.704;2022-10-28T07:19:57;22.83;;;15.75;;
56893;SDS011;43392;50.078;13.704;2022-10-28T07:22:23;23.20;;;15.82;;
56893;SDS011;43392;50.078;13.704;2022-10-28T07:24:50;31.27;;;20.70;;
56893;SDS011;43392;50.078;13.704;2022-10-28T07:27:17;51.25;;;36.95;;
56893;SDS011;43392;50.078;13.704;2022-10-28T07:29:43;39.92;;;28.70;;
56893;SDS011;43392;50.078;13.704;2022-10-28T07:32:10;43.20;;;30.80;;
56893;SDS011;43392;50.078;13.704;2022-10-28T07:34:36;41.10;;;26.48;;
56893;SDS011;43392;50.078;13.704;2022-10-28T07:37:04;32.45;;;22.90;;
56893;SDS011;43392;50.078;13.704;2022-10-28T07:39:31;35.40;;;24.40;;
56893;SDS011;43392;50.078;13.704;2022-10-28T07:41:58;28.85;;;19.75;;
56893;SDS011;43392;50.078;13.704;2022-10-28T07:44:25;31.63;;;22.42;;
56893;SDS011;43392;50.078;13.704;2022-10-28T07:46:52;26.98;;;17.55;;
56893;SDS011;43392;50.078;13.704;2022-10-28T07:49:18;23.85;;;16.90;;
56893;SDS011;43392;50.078;13.704;2022-10-28T07:51:45;24.33;;;16.67;;
56893;SDS011;43392;50.078;13.704;2022-10-28T07:54:15;24.05;;;17.60;;
56893;SDS011;43392;50.078;13.704;2022-10-28T07:56:42;24.42;;;16.25;;
56893;SDS011;43392;50.078;13.704;2022-10-28T07:59:09;23.55;;;16.83;;
56893;SDS011;43392;50.078;13.704;2022-10-28T08:01:35;21.70;;;15.50;;
56893;SDS011;43392;50.078;13.704;2022-10-28T08:04:02;23.20;;;16.88;;
56893;SDS011;43392;50.078;13.704;2022-10-28T08:06:29;23.08;;;15.07;;
56893;SDS011;43392;50.078;13.704;2022-10-28T08:08:55;21.15;;;15.23;;
56893;SDS011;43392;50.078;13.704;2022-10-28T08:11:24;26.25;;;18.60;;
56893;SDS011;43392;50.078;13.704;2022-10-28T08:13:51;24.23;;;17.85;;
56893;SDS011;43392;50.078;13.704;2022-10-28T08:16:19;21.70;;;17.10;;
56893;SDS011;43392;50.078;13.704;2022-10-28T08:18:45;20.75;;;16.20;;
56893;SDS011;43392;50.078;13.704;2022-10-28T08:21:12;23.05;;;17.00;;
56893;SDS011;43392;50.078;13.704;2022-10-28T08:23:39;24.42;;;17.08;;
56893;SDS011;43392;50.078;13.704;2022-10-28T08:26:10;23.17;;;15.65;;
56893;SDS011;43392;50.078;13.704;2022-10-28T08:28:39;21.30;;;14.98;;
56893;SDS011;43392;50.078;13.704;2022-10-28T08:31:05;21.13;;;13.77;;
56893;SDS011;43392;50.078;13.704;2022-10-28T08:33:34;20.38;;;14.57;;
56893;SDS011;43392;50.078;13.704;2022-10-28T08:36:02;24.63;;;15.52;;
56893;SDS011;43392;50.078;13.704;2022-10-28T08:38:29;33.47;;;15.73;;
56893;SDS011;43392;50.078;13.704;2022-10-28T08:40:57;23.20;;;15.35;;
56893;SDS011;43392;50.078;13.704;2022-10-28T08:43:33;30.83;;;15.48;;
56893;SDS011;43392;50.078;13.704;2022-10-28T08:46:11;30.88;;;19.52;;
56893;SDS011;43392;50.078;13.704;2022-10-28T08:48:47;32.97;;;22.02;;
56893;SDS011;43392;50.078;13.704;2022-10-28T08:51:15;35.17;;;22.58;;
56893;SDS011;43392;50.078;13.704;2022-10-28T08:53:45;36.30;;;23.88;;
56893;SDS011;43392;50.078;13.704;2022-10-28T08:56:21;36.90;;;23.00;;
56893;SDS011;43392;50.078;13.704;2022-10-28T08:58:55;37.70;;;23.83;;
56893;SDS011;43392;50.078;13.704;2022-10-28T09:01:29;35.58;;;22.10;;
56893;SDS011;43392;50.078;13.704;2022-10-28T09:04:15;38.80;;;23.45;;
56893;SDS011;43392;50.078;13.704;2022-10-28T09:06:49;34.88;;;22.55;;
56893;SDS011;43392;50.078;13.704;2022-10-28T09:09:16;40.38;;;23.42;;
56893;SDS011;43392;50.078;13.704;2022-10-28T09:11:54;31.65;;;20.88;;
56893;SDS011;43392;50.078;13.704;2022-10-28T09:14:39;30.70;;;19.70;;
56893;SDS011;43392;50.078;13.704;2022-10-28T09:17:16;30.80;;;19.05;;
56893;SDS011;43392;50.078;13.704;2022-10-28T09:19:46;25.58;;;16.05;;
56893;SDS011;43392;50.078;13.704;2022-10-28T09:22:19;24.02;;;15.68;;
56893;SDS011;43392;50.078;13.704;2022-10-28T09:24:49;27.33;;;15.85;;
56893;SDS011;43392;50.078;13.704;2022-10-28T09:27:20;24.30;;;16.15;;
56893;SDS011;43392;50.078;13.704;2022-10-28T09:29:59;25.60;;;15.57;;
56893;SDS011;43392;50.078;13.704;2022-10-28T09:32:40;25.88;;;15.82;;
56893;SDS011;43392;50.078;13.704;2022-10-28T09:35:14;22.67;;;14.45;;
56893;SDS011;43392;50.078;13.704;2022-10-28T09:37:44;24.55;;;14.95;;
56893;SDS011;43392;50.078;13.704;2022-10-28T09:40:14;20.77;;;13.07;;
56893;SDS011;43392;50.078;13.704;2022-10-28T09:42:45;22.42;;;13.88;;
56893;SDS011;43392;50.078;13.704;2022-10-28T09:45:20;21.35;;;13.00;;
56893;SDS011;43392;50.078;13.704;2022-10-28T09:47:50;19.92;;;12.35;;
56893;SDS011;43392;50.078;13.704;2022-10-28T09:50:22;19.00;;;12.40;;
56893;SDS011;43392;50.078;13.704;2022-10-28T09:52:56;22.33;;;12.25;;
56893;SDS011;43392;50.078;13.704;2022-10-28T09:55:27;22.75;;;12.13;;
56893;SDS011;43392;50.078;13.704;2022-10-28T09:57:55;19.98;;;12.90;;
56893;SDS011;43392;50.078;13.704;2022-10-28T10:00:23;18.77;;;12.40;;
56893;SDS011;43392;50.078;13.704;2022-10-28T10:02:50;19.73;;;12.85;;
56893;SDS011;43392;50.078;13.704;2022-10-28T10:05:22;24.30;;;13.18;;
56893;SDS011;43392;50.078;13.704;2022-10-28T10:07:50;25.15;;;16.17;;
56893;SDS011;43392;50.078;13.704;2022-10-28T10:10:21;29.60;;;17.42;;
56893;SDS011;43392;50.078;13.704;2022-10-28T10:12:51;26.73;;;16.23;;
56893;SDS011;43392;50.078;13.704;2022-10-28T10:15:26;18.90;;;12.77;;
56893;SDS011;43392;50.078;13.704;2022-10-28T10:17:55;16.48;;;10.70;;
56893;SDS011;43392;50.078;13.704;2022-10-28T10:20:24;17.83;;;10.95;;
56893;SDS011;43392;50.078;13.704;2022-10-28T10:22:51;18.77;;;10.75;;
56893;SDS011;43392;50.078;13.704;2022-10-28T10:25:22;21.92;;;12.20;;
56893;SDS011;43392;50.078;13.704;2022-10-28T10:27:54;16.58;;;10.48;;
56893;SDS011;43392;50.078;13.704;2022-10-28T10:30:25;22.98;;;12.68;;
56893;SDS011;43392;50.078;13.704;2022-10-28T10:32:56;17.02;;;10.32;;
56893;SDS011;43392;50.078;13.704;2022-10-28T10:35:24;19.70;;;11.60;;
56893;SDS011;43392;50.078;13.704;2022-10-28T10:37:53;20.90;;;12.80;;
56893;SDS011;43392;50.078;13.704;2022-10-28T10:40:22;28.58;;;18.35;;
56893;SDS011;43392;50.078;13.704;2022-10-28T10:42:51;24.27;;;15.43;;
56893;SDS011;43392;50.078;13.704;2022-10-28T10:45:22;21.15;;;11.10;;
56893;SDS011;43392;50.078;13.704;2022-10-28T10:48:05;18.30;;;10.75;;
56893;SDS011;43392;50.078;13.704;2022-10-28T10:50:37;18.25;;;12.30;;
56893;SDS011;43392;50.078;13.704;2022-10-28T10:53:04;18.38;;;11.63;;
56893;SDS011;43392;50.078;13.704;2022-10-28T10:55:32;17.50;;;11.00;;
56893;SDS011;43392;50.078;13.704;2022-10-28T10:58:01;20.42;;;9.77;;
56893;SDS011;43392;50.078;13.704;2022-10-28T11:00:32;15.18;;;9.32;;
56893;SDS011;43392;50.078;13.704;2022-10-28T11:03:02;16.23;;;10.20;;
56893;SDS011;43392;50.078;13.704;2022-10-28T11:05:31;18.00;;;8.98;;
56893;SDS011;43392;50.078;13.704;2022-10-28T11:07:58;17.83;;;8.40;;
56893;SDS011;43392;50.078;13.704;2022-10-28T11:12:57;20.02;;;10.63;;
56893;SDS011;43392;50.078;13.704;2022-10-28T11:15:27;22.40;;;12.05;;
56893;SDS011;43392;50.078;13.704;2022-10-28T11:17:57;22.23;;;12.20;;
56893;SDS011;43392;50.078;13.704;2022-10-28T11:20:26;20.45;;;10.82;;
56893;SDS011;43392;50.078;13.704;2022-10-28T11:23:06;19.65;;;10.85;;
56893;SDS011;43392;50.078;13.704;2022-10-28T11:25:46;15.07;;;9.77;;
56893;SDS011;43392;50.078;13.704;2022-10-28T11:28:20;20.17;;;9.55;;
56893;SDS011;43392;50.078;13.704;2022-10-28T11:31:03;16.60;;;9.60;;
56893;SDS011;43392;50.078;13.704;2022-10-28T11:33:44;12.68;;;7.72;;
56893;SDS011;43392;50.078;13.704;2022-10-28T11:36:19;15.05;;;8.40;;
56893;SDS011;43392;50.078;13.704;2022-10-28T11:41:48;33.38;;;15.98;;
56893;SDS011;43392;50.078;13.704;2022-10-28T11:44:30;17.52;;;10.55;;
56893;SDS011;43392;50.078;13.704;2022-10-28T11:47:10;24.60;;;12.95;;
56893;SDS011;43392;50.078;13.704;2022-10-28T11:50:02;17.35;;;9.93;;
56893;SDS011;43392;50.078;13.704;2022-10-28T11:52:42;15.65;;;8.20;;
56893;SDS011;43392;50.078;13.704;2022-10-28T11:55:22;19.05;;;9.02;;
56893;SDS011;43392;50.078;13.704;2022-10-28T11:58:00;13.73;;;7.15;;
56893;SDS011;43392;50.078;13.704;2022-10-28T12:00:45;12.98;;;6.57;;
56893;SDS011;43392;50.078;13.704;2022-10-28T12:06:19;18.08;;;8.77;;
56893;SDS011;43392;50.078;13.704;2022-10-28T12:09:05;13.63;;;7.70;;
56893;SDS011;43392;50.078;13.704;2022-10-28T12:11:41;16.23;;;7.35;;
56893;SDS011;43392;50.078;13.704;2022-10-28T12:14:19;15.75;;;8.50;;
56893;SDS011;43392;50.078;13.704;2022-10-28T12:16:54;14.32;;;7.05;;
56893;SDS011;43392;50.078;13.704;2022-10-28T12:19:29;10.88;;;6.18;;
56893;SDS011;43392;50.078;13.704;2022-10-28T12:22:01;12.23;;;6.43;;
56893;SDS011;43392;50.078;13.704;2022-10-28T12:24:34;14.77;;;7.05;;
56893;SDS011;43392;50.078;13.704;2022-10-28T12:27:03;13.40;;;8.00;;
56893;SDS011;43392;50.078;13.704;2022-10-28T12:29:37;18.65;;;11.38;;
56893;SDS011;43392;50.078;13.704;2022-10-28T12:32:08;12.88;;;6.00;;
56893;SDS011;43392;50.078;13.704;2022-10-28T12:37:09;17.65;;;7.25;;
56893;SDS011;43392;50.078;13.704;2022-10-28T12:39:40;12.57;;;5.97;;
56893;SDS011;43392;50.078;13.704;2022-10-28T12:42:14;10.65;;;5.60;;
56893;SDS011;43392;50.078;13.704;2022-10-28T12:44:46;12.98;;;5.38;;
56893;SDS011;43392;50.078;13.704;2022-10-28T12:47:16;10.15;;;4.95;;
56893;SDS011;43392;50.078;13.704;2022-10-28T12:49:56;10.90;;;5.53;;
56893;SDS011;43392;50.078;13.704;2022-10-28T12:52:37;12.75;;;5.00;;
56893;SDS011;43392;50.078;13.704;2022-10-28T12:55:22;12.02;;;4.47;;
56893;SDS011;43392;50.078;13.704;2022-10-28T12:57:57;13.02;;;5.32;;
56893;SDS011;43392;50.078;13.704;2022-10-28T13:00:28;10.43;;;5.78;;
56893;SDS011;43392;50.078;13.704;2022-10-28T13:03:00;8.93;;;5.03;;
56893;SDS011;43392;50.078;13.704;2022-10-28T13:05:30;13.05;;;5.43;;
56893;SDS011;43392;50.078;13.704;2022-10-28T13:08:09;13.50;;;5.18;;
56893;SDS011;43392;50.078;13.704;2022-10-28T13:10:53;10.60;;;4.90;;
56893;SDS011;43392;50.078;13.704;2022-10-28T13:13:26;9.55;;;4.97;;
56893;SDS011;43392;50.078;13.704;2022-10-28T13:24:48;12.82;;;5.53;;
56893;SDS011;43392;50.078;13.704;2022-10-28T13:27:22;22.05;;;8.32;;
56893;SDS011;43392;50.078;13.704;2022-10-28T13:29:50;12.45;;;5.95;;
56893;SDS011;43392;50.078;13.704;2022-10-28T13:32:27;12.93;;;5.22;;
56893;SDS011;43392;50.078;13.704;2022-10-28T13:34:56;13.45;;;5.93;;
56893;SDS011;43392;50.078;13.704;2022-10-28T13:37:24;12.20;;;5.80;;
56893;SDS011;43392;50.078;13.704;2022-10-28T13:39:57;13.02;;;5.95;;
56893;SDS011;43392;50.078;13.704;2022-10-28T13:42:31;11.93;;;5.95;;
56893;SDS011;43392;50.078;13.704;2022-10-28T13:51:28;18.35;;;9.98;;
56893;SDS011;43392;50.078;13.704;2022-10-28T13:53:56;15.60;;;8.50;;
56893;SDS011;43392;50.078;13.704;2022-10-28T13:56:33;15.40;;;7.22;;
56893;SDS011;43392;50.078;13.704;2022-10-28T13:59:15;15.90;;;8.25;;
56893;SDS011;43392;50.078;13.704;2022-10-28T14:02:11;12.20;;;5.97;;
56893;SDS011;43392;50.078;13.704;2022-10-28T14:04:42;10.23;;;6.32;;
56893;SDS011;43392;50.078;13.704;2022-10-28T14:07:20;15.85;;;7.90;;
56893;SDS011;43392;50.078;13.704;2022-10-28T14:09:51;14.02;;;7.38;;
56893;SDS011;43392;50.078;13.704;2022-10-28T14:12:23;14.80;;;5.88;;
56893;SDS011;43392;50.078;13.704;2022-10-28T14:14:59;12.10;;;5.70;;
56893;SDS011;43392;50.078;13.704;2022-10-28T14:17:33;11.70;;;5.88;;
56893;SDS011;43392;50.078;13.704;2022-10-28T14:20:03;14.13;;;5.85;;
56893;SDS011;43392;50.078;13.704;2022-10-28T14:22:33;12.93;;;6.35;;
56893;SDS011;43392;50.078;13.704;2022-10-28T14:25:01;14.18;;;7.25;;
56893;SDS011;43392;50.078;13.704;2022-10-28T14:27:42;15.70;;;8.07;;
56893;SDS011;43392;50.078;13.704;2022-10-28T14:30:13;19.60;;;8.00;;
56893;SDS011;43392;50.078;13.704;2022-10-28T14:32:42;13.80;;;5.70;;
56893;SDS011;43392;50.078;13.704;2022-10-28T14:40:50;17.92;;;10.48;;
56893;SDS011;43392;50.078;13.704;2022-10-28T14:43:37;14.52;;;8.07;;
56893;SDS011;43392;50.078;13.704;2022-10-28T14:46:16;15.52;;;9.18;;
56893;SDS011;43392;50.078;13.704;2022-10-28T14:48:53;16.17;;;8.27;;
56893;SDS011;43392;50.078;13.704;2022-10-28T14:51:23;13.98;;;6.75;;
56893;SDS011;43392;50.078;13.704;2022-10-28T14:53:53;12.93;;;6.55;;
56893;SDS011;43392;50.078;13.704;2022-10-28T14:56:23;13.70;;;6.63;;
56893;SDS011;43392;50.078;13.704;2022-10-28T14:58:52;15.20;;;7.05;;
56893;SDS011;43392;50.078;13.704;2022-10-28T15:01:26;13.13;;;5.97;;
56893;SDS011;43392;50.078;13.704;2022-10-28T15:03:55;9.90;;;5.72;;
56893;SDS011;43392;50.078;13.704;2022-10-28T15:06:25;11.20;;;6.68;;